Terminal Aerodrome Forecast
Issued by NWS Sterling, VA

Home | Current Version | Previous Version | Text Only | Print | Product List | Glossary On
Versions: 1 2 3 4 5 6 7 8 9 10 11 12 13 14 15 16 17 18 19 20 21 22 23 24
000
FTUS41 KLWX 220832 AAA
TAFBWI
TAF AMD
KBWI 220832Z 2209/2312 VRB03KT P6SM SCT060 BKN100
     FM221900 16008G16KT P6SM BKN200
     FM230600 17007KT 5SM -SHRA OVC015
     FM230900 16007KT 3SM -SHRA OVC008 WS020/19040KT=

USA.gov is the U.S. government's official web portal to all federal, state and local government web resources and services.